Time;durP1;ratioP1;P1;durP2;ratioP2;P2;SDS_P1;SDS_P2;PMS_P1;PMS_P2;Temp;Humidity;BMP_temperature;BMP_pressure;BME280_temperature;BME280_humidity;BME280_pressure;Samples;Min_cycle;Max_cycle;Signal;HPM_P1;HPM_P2
2021/03/12 00:00:40;;;;;;;17.52;7.65;;;;;;;-3.65;63.45;99576.81;1806156;79;21157;-79
2021/03/12 00:03:16;;;;;;;13.20;6.60;;;;;;;-3.64;63.67;99574.95;1821855;78;20926;-79
2021/03/12 00:05:48;;;;;;;17.10;8.28;;;;;;;-3.66;63.42;99556.39;1822062;78;21105;-81
2021/03/12 00:08:15;;;;;;;18.37;5.87;;;;;;;-3.64;63.56;99562.88;1812274;78;22395;-81
2021/03/12 00:10:45;;;;;;;16.45;7.33;;;;;;;-3.66;63.52;99569.81;1792076;79;21006;-82
2021/03/12 00:13:12;;;;;;;18.37;6.80;;;;;;;-3.66;63.31;99551.84;1782785;80;21033;-85
2021/03/12 00:15:39;;;;;;;12.88;6.50;;;;;;;-3.65;63.39;99543.28;1788596;80;21493;-83
2021/03/12 00:18:07;;;;;;;15.30;7.35;;;;;;;-3.65;63.20;99548.64;1795207;80;21053;-84
2021/03/12 00:20:37;;;;;;;20.25;6.58;;;;;;;-3.62;63.02;99542.02;1795065;80;21366;-85
2021/03/12 00:23:05;;;;;;;17.48;6.33;;;;;;;-3.61;62.59;99544.47;1794839;80;21124;-86
2021/03/12 00:25:42;;;;;;;16.48;6.53;;;;;;;-3.60;62.79;99538.06;1795546;79;21136;-86
2021/03/12 00:28:11;;;;;;;14.10;6.15;;;;;;;-3.59;63.01;99526.28;1795567;80;20966;-86
2021/03/12 00:30:40;;;;;;;18.57;6.03;;;;;;;-3.59;62.55;99515.55;1795820;79;21457;-84
2021/03/12 00:33:07;;;;;;;26.52;7.47;;;;;;;-3.59;62.26;99508.84;1797213;74;21430;-85
2021/03/12 00:35:37;;;;;;;30.95;7.62;;;;;;;-3.58;62.46;99510.48;1795226;80;21017;-84
2021/03/12 00:38:04;;;;;;;15.85;7.20;;;;;;;-3.58;62.40;99514.51;1774647;80;20967;-83
2021/03/12 00:40:43;;;;;;;12.10;6.58;;;;;;;-3.57;62.49;99508.09;1794721;80;21018;-83
2021/03/12 00:43:11;;;;;;;15.98;6.25;;;;;;;-3.57;61.78;99493.86;1794831;79;21561;-82
2021/03/12 00:45:42;;;;;;;16.27;7.05;;;;;;;-3.55;62.15;99495.27;1794861;80;22414;-82
2021/03/12 00:48:11;;;;;;;23.42;7.03;;;;;;;-3.54;62.14;99497.44;1794916;79;21067;-83
2021/03/12 00:50:40;;;;;;;26.02;7.15;;;;;;;-3.55;61.53;99497.14;1794775;80;21060;-83
2021/03/12 00:53:07;;;;;;;19.40;7.67;;;;;;;-3.56;61.58;99491.47;1788740;79;20950;-84
2021/03/12 00:55:35;;;;;;;11.53;5.95;;;;;;;-3.56;61.55;99472.69;1775525;79;21062;-82
2021/03/12 00:58:04;;;;;;;25.48;6.72;;;;;;;-3.57;61.66;99469.19;1794136;78;22218;-84
2021/03/12 01:00:34;;;;;;;15.53;5.70;;;;;;;-3.59;61.52;99457.86;1806149;79;21018;-83
2021/03/12 01:03:05;;;;;;;12.28;6.35;;;;;;;-3.59;61.64;99441.77;1838556;78;21006;-82
2021/03/12 01:05:34;;;;;;;21.52;7.05;;;;;;;-3.59;61.84;99433.71;1805815;79;38591;-81
2021/03/12 01:08:04;;;;;;;20.30;6.17;;;;;;;-3.59;61.61;99444.44;1798467;79;21158;-81
2021/03/12 01:10:32;;;;;;;21.93;7.05;;;;;;;-3.61;61.73;99439.83;1748707;81;21433;-81
2021/03/12 01:13:01;;;;;;;26.62;7.37;;;;;;;-3.62;61.51;99436.03;1806929;79;21488;-80
2021/03/12 01:15:28;;;;;;;19.77;6.33;;;;;;;-3.63;61.42;99416.42;1807066;79;20946;-79
2021/03/12 01:17:57;;;;;;;15.68;6.75;;;;;;;-3.63;61.57;99434.39;1806686;79;21696;-79
2021/03/12 01:20:34;;;;;;;19.00;7.17;;;;;;;-3.64;61.45;99444.30;1806995;79;21565;-80
2021/03/12 01:23:02;;;;;;;13.20;5.87;;;;;;;-3.64;61.58;99458.23;1782169;79;21205;-81
2021/03/12 01:25:42;;;;;;;17.30;6.42;;;;;;;-3.64;61.30;99463.61;1806839;79;21046;-82
2021/03/12 01:28:10;;;;;;;22.15;5.90;;;;;;;-3.66;61.23;99453.09;1807166;79;21033;-78
2021/03/12 01:30:41;;;;;;;23.12;7.03;;;;;;;-3.67;61.32;99458.16;1807028;79;21057;-81
2021/03/12 01:33:11;;;;;;;18.15;6.55;;;;;;;-3.70;61.28;99460.78;1804532;79;21044;-78
2021/03/12 01:35:39;;;;;;;18.50;7.10;;;;;;;-3.71;61.09;99459.14;1807025;79;22433;-78
2021/03/12 01:38:07;;;;;;;25.85;7.33;;;;;;;-3.70;61.34;99450.57;1806989;79;21069;-79
2021/03/12 01:40:38;;;;;;;26.70;6.72;;;;;;;-3.69;61.30;99441.48;1806836;79;21129;-78
2021/03/12 01:43:06;;;;;;;16.55;6.85;;;;;;;-3.70;61.24;99427.77;1807077;79;21105;-77
2021/03/12 01:45:42;;;;;;;17.85;7.33;;;;;;;-3.71;61.05;99420.24;1807017;79;21104;-78
2021/03/12 01:48:14;;;;;;;20.52;7.10;;;;;;;-3.72;61.43;99416.44;1806674;79;21373;-77
2021/03/12 01:50:45;;;;;;;17.52;7.12;;;;;;;-3.72;61.65;99405.71;1806987;79;21072;-77
2021/03/12 01:53:17;;;;;;;26.63;8.97;;;;;;;-3.72;61.64;99386.93;1805825;79;21151;-77
2021/03/12 01:55:44;;;;;;;15.63;6.63;;;;;;;-3.74;61.59;99401.09;1806966;79;21428;-79
2021/03/12 01:58:13;;;;;;;21.48;6.75;;;;;;;-3.74;61.59;99401.09;1807045;79;21113;-79
2021/03/12 02:00:43;;;;;;;22.20;6.55;;;;;;;-3.76;61.76;99401.32;1806565;79;21871;-77
2021/03/12 02:03:29;;;;;;;16.80;7.00;;;;;;;-3.74;61.83;99392.52;1872695;76;22703;-77
2021/03/12 02:06:07;;;;;;;14.83;7.00;;;;;;;-3.80;61.89;99379.20;1840407;78;20972;-77
2021/03/12 02:08:35;;;;;;;17.45;6.30;;;;;;;-3.81;61.84;99384.27;1841137;77;20936;-77
2021/03/12 02:11:07;;;;;;;18.45;7.05;;;;;;;-3.84;62.03;99380.70;1838381;78;20924;-77
2021/03/12 02:13:47;;;;;;;18.20;7.20;;;;;;;-3.85;62.12;99381.73;1790520;80;20954;-81
2021/03/12 02:16:35;;;;;;;23.02;7.30;;;;;;;-3.86;62.16;99370.71;1781952;80;21001;-80
2021/03/12 02:19:27;;;;;;;29.20;8.68;;;;;;;-3.88;62.28;99366.09;1782072;80;21008;-80
2021/03/12 02:21:57;;;;;;;18.35;7.65;;;;;;;-3.90;62.57;99358.80;1781737;80;21041;-82
2021/03/12 02:24:48;;;;;;;25.50;7.92;;;;;;;-3.92;62.48;99348.30;1781939;80;20996;-84
2021/03/12 02:27:18;;;;;;;22.77;8.05;;;;;;;-3.93;62.80;99340.48;1781141;80;20942;-83
2021/03/12 02:29:53;;;;;;;15.08;6.50;;;;;;;-3.90;62.94;99337.34;1781677;80;20935;-81
2021/03/12 02:32:33;;;;;;;23.87;8.45;;;;;;;-3.92;62.97;99343.45;1781482;80;21064;-80
2021/03/12 02:35:08;;;;;;;20.43;7.83;;;;;;;-3.91;62.91;99341.08;1781894;80;21258;-79
2021/03/12 02:37:36;;;;;;;16.57;7.50;;;;;;;-3.95;62.96;99331.84;1781790;80;21563;-80
2021/03/12 02:40:07;;;;;;;21.23;7.47;;;;;;;-3.95;63.27;99323.80;1781910;80;20993;-78
2021/03/12 02:42:37;;;;;;;21.10;7.35;;;;;;;-3.99;63.32;99336.32;1764928;80;21153;-79
2021/03/12 02:45:06;;;;;;;26.68;7.42;;;;;;;-4.02;63.04;99322.02;1751107;81;21522;-78
2021/03/12 02:47:35;;;;;;;33.13;8.33;;;;;;;-4.04;63.35;99305.86;1720443;82;21386;-78
2021/03/12 02:50:07;;;;;;;16.75;7.85;;;;;;;-4.05;63.73;99313.13;1750349;82;20993;-83
2021/03/12 02:52:35;;;;;;;30.37;8.03;;;;;;;-4.08;63.84;99308.73;1750846;82;21004;-83
2021/03/12 02:55:04;;;;;;;17.37;7.58;;;;;;;-4.09;64.07;99308.44;1721601;82;21598;-84
2021/03/12 02:57:34;;;;;;;19.45;7.25;;;;;;;-4.12;63.88;99297.64;1748981;82;21022;-83
2021/03/12 03:00:02;;;;;;;18.77;7.78;;;;;;;-4.16;63.91;99300.48;1750875;82;21452;-82
2021/03/12 03:02:40;;;;;;;17.35;7.72;;;;;;;-4.11;64.14;99304.64;1889851;75;22721;-82
2021/03/12 03:05:10;;;;;;;17.60;7.03;;;;;;;-4.15;64.24;99299.95;1823046;77;21463;-82
2021/03/12 03:07:41;;;;;;;24.07;9.47;;;;;;;-4.17;64.26;99306.88;1855517;77;22467;-82
2021/03/12 03:10:10;;;;;;;16.32;7.58;;;;;;;-4.18;64.23;99315.16;1860709;77;20919;-83
2021/03/12 03:12:39;;;;;;;22.50;7.65;;;;;;;-4.19;64.43;99311.66;1860554;77;20959;-82
2021/03/12 03:15:08;;;;;;;22.27;8.25;;;;;;;-4.18;64.69;99308.45;1860789;77;21514;-83
2021/03/12 03:17:36;;;;;;;19.15;6.83;;;;;;;-4.18;64.66;99307.11;1860837;77;20987;-83
2021/03/12 03:20:06;;;;;;;15.30;5.95;;;;;;;-4.18;64.70;99304.43;1860558;77;21358;-85
2021/03/12 03:22:34;;;;;;;22.10;6.35;;;;;;;-4.20;64.49;99312.70;1860738;77;20999;-80
2021/03/12 03:25:07;;;;;;;26.70;7.47;;;;;;;-4.22;64.75;99308.61;1860521;77;21010;-82
2021/03/12 03:27:35;;;;;;;17.17;6.50;;;;;;;-4.23;65.07;99302.95;1860786;77;20991;-82
2021/03/12 03:30:06;;;;;;;16.75;7.55;;;;;;;-4.25;65.01;99271.02;1860772;77;21290;-83
2021/03/12 03:32:34;;;;;;;15.58;6.08;;;;;;;-4.29;65.09;99281.89;1861075;77;21370;-81
2021/03/12 03:35:05;;;;;;;26.35;8.13;;;;;;;-4.34;64.91;99272.36;1821993;77;21188;-83
2021/03/12 03:37:34;;;;;;;27.77;8.03;;;;;;;-4.38;65.16;99288.59;1860452;77;21023;-80
2021/03/12 03:40:03;;;;;;;31.70;8.30;;;;;;;-4.39;65.35;99282.42;1860411;77;21010;-80
2021/03/12 03:42:30;;;;;;;30.55;8.00;;;;;;;-4.39;65.15;99270.88;1844408;77;20954;-81
2021/03/12 03:44:58;;;;;;;30.23;7.62;;;;;;;-4.40;65.37;99275.42;1827038;78;21801;-79
2021/03/12 03:47:27;;;;;;;20.40;6.55;;;;;;;-4.41;65.55;99272.45;1826662;78;20995;-78
2021/03/12 03:49:55;;;;;;;22.73;6.75;;;;;;;-4.44;65.51;99258.68;1826845;78;21018;-79
2021/03/12 03:52:22;;;;;;;21.10;7.30;;;;;;;-4.45;65.42;99252.50;1827007;78;21161;-81
2021/03/12 03:54:52;;;;;;;17.87;8.15;;;;;;;-4.46;65.67;99254.06;1794637;78;20912;-81
2021/03/12 03:57:21;;;;;;;19.00;7.33;;;;;;;-4.48;65.56;99271.71;1822959;78;21187;-79
2021/03/12 03:59:49;;;;;;;15.53;7.10;;;;;;;-4.49;65.84;99260.70;1814995;79;20899;-78
2021/03/12 04:02:18;;;;;;;30.02;6.80;;;;;;;-4.50;65.84;99256.38;1814992;78;21465;-78
2021/03/12 04:04:48;;;;;;;27.93;9.75;;;;;;;-4.48;66.17;99249.45;1815066;79;21595;-82
2021/03/12 04:07:18;;;;;;;23.00;8.53;;;;;;;-4.48;66.29;99257.49;1814876;78;21579;-80
2021/03/12 04:09:48;;;;;;;15.93;7.30;;;;;;;-4.46;66.38;99270.97;1799392;78;21191;-81
2021/03/12 04:12:15;;;;;;;26.68;8.38;;;;;;;-4.48;66.33;99265.02;1830109;78;21017;-83
2021/03/12 04:14:46;;;;;;;25.95;7.47;;;;;;;-4.47;66.52;99272.53;1829520;78;21561;-83
2021/03/12 04:17:14;;;;;;;18.35;7.47;;;;;;;-4.49;66.48;99257.20;1800601;78;21568;-81
2021/03/12 04:19:44;;;;;;;19.75;7.42;;;;;;;-4.52;66.71;99253.11;1829598;78;21504;-80
2021/03/12 04:22:12;;;;;;;27.13;8.60;;;;;;;-4.53;66.85;99233.23;1829220;78;21392;-80
2021/03/12 04:24:40;;;;;;;26.95;8.18;;;;;;;-4.56;67.18;99233.17;1829525;78;20939;-84
2021/03/12 04:27:10;;;;;;;20.35;6.37;;;;;;;-4.58;67.16;99238.45;1791424;79;20938;-74
2021/03/12 04:29:37;;;;;;;23.27;9.00;;;;;;;-4.59;67.40;99255.56;1824372;78;20884;-80
2021/03/12 04:32:06;;;;;;;24.57;8.15;;;;;;;-4.60;67.60;99256.61;1826550;78;21023;-81
2021/03/12 04:34:34;;;;;;;29.55;8.28;;;;;;;-4.60;67.55;99256.61;1823877;78;21267;-82
2021/03/12 04:37:03;;;;;;;18.37;6.37;;;;;;;-4.60;67.63;99269.48;1776078;79;20978;-82
2021/03/12 04:39:31;;;;;;;17.48;7.03;;;;;;;-4.59;67.60;99259.59;1776650;79;21054;-77
2021/03/12 04:41:59;;;;;;;18.50;8.73;;;;;;;-4.59;67.72;99277.00;1805731;79;21002;-79
2021/03/12 04:44:27;;;;;;;22.50;8.20;;;;;;;-4.61;67.86;99250.44;1805790;79;21053;-80
2021/03/12 04:46:56;;;;;;;23.38;7.83;;;;;;;-4.60;67.87;99264.64;1806089;79;22704;-75
2021/03/12 04:49:23;;;;;;;21.85;8.90;;;;;;;-4.61;67.80;99271.05;1805755;79;21152;-80
2021/03/12 04:51:52;;;;;;;26.97;7.90;;;;;;;-4.62;67.80;99276.92;1783061;78;21021;-82
2021/03/12 04:54:20;;;;;;;32.25;8.80;;;;;;;-4.62;68.04;99272.13;1825389;78;20979;-82
2021/03/12 04:56:48;;;;;;;28.02;8.43;;;;;;;-4.62;67.93;99275.59;1814298;79;21136;-76
2021/03/12 04:59:15;;;;;;;20.70;8.40;;;;;;;-4.61;67.94;99277.75;1814551;79;21596;-74
2021/03/12 05:01:44;;;;;;;24.07;8.28;;;;;;;-4.60;67.82;99283.40;1814192;78;21497;-76
2021/03/12 05:04:12;;;;;;;22.05;8.13;;;;;;;-4.58;67.94;99267.92;1814221;79;21152;-76
2021/03/12 05:06:44;;;;;;;21.70;8.80;;;;;;;-4.57;67.83;99274.39;1814311;78;21045;-76
2021/03/12 05:09:28;;;;;;;21.87;7.75;;;;;;;-4.53;67.70;99253.33;1904696;74;22807;-76
2021/03/12 05:11:56;;;;;;;26.65;8.05;;;;;;;-4.58;67.84;99249.98;1875462;76;20994;-76
2021/03/12 05:14:25;;;;;;;20.95;9.48;;;;;;;-4.58;67.90;99241.95;1875431;76;21352;-78
2021/03/12 05:16:53;;;;;;;19.12;7.83;;;;;;;-4.59;67.76;99255.05;1790540;79;21124;-77
2021/03/12 05:19:22;;;;;;;19.23;8.60;;;;;;;-4.58;67.75;99246.48;1788665;80;20939;-78
2021/03/12 05:21:53;;;;;;;19.40;7.60;;;;;;;-4.58;67.81;99253.19;1814528;79;21002;-80
2021/03/12 05:24:22;;;;;;;24.20;8.73;;;;;;;-4.59;67.58;99255.05;1760499;79;20991;-80
2021/03/12 05:26:50;;;;;;;18.20;7.33;;;;;;;-4.59;67.50;99255.56;1790228;79;21349;-77
2021/03/12 05:29:20;;;;;;;28.15;9.13;;;;;;;-4.60;67.33;99247.23;1814013;78;21064;-79
2021/03/12 05:31:49;;;;;;;23.42;6.58;;;;;;;-4.62;67.41;99261.41;1790568;80;20978;-79
2021/03/12 05:34:17;;;;;;;28.95;7.17;;;;;;;-4.59;67.44;99272.45;1813777;78;21030;-81
2021/03/12 05:36:45;;;;;;;26.55;8.43;;;;;;;-4.60;67.32;99277.52;1813936;79;21132;-79
2021/03/12 05:39:14;;;;;;;22.05;7.80;;;;;;;-4.59;67.23;99277.00;1796789;79;21205;-78
2021/03/12 05:41:42;;;;;;;26.33;8.25;;;;;;;-4.60;67.13;99277.52;1807725;79;21124;-78
2021/03/12 05:44:09;;;;;;;24.52;8.60;;;;;;;-4.57;67.29;99281.09;1734758;81;21177;-81
2021/03/12 05:46:37;;;;;;;18.15;6.87;;;;;;;-4.53;67.17;99280.12;1817952;79;20910;-84
2021/03/12 05:49:07;;;;;;;23.38;7.95;;;;;;;-4.50;66.75;99271.64;1781238;80;21120;-86
2021/03/12 05:51:36;;;;;;;18.27;7.97;;;;;;;-4.48;67.08;99270.37;1781207;80;21572;-69
2021/03/12 05:54:04;;;;;;;19.17;7.67;;;;;;;-4.46;66.89;99261.59;1780930;80;21120;-73
2021/03/12 05:56:33;;;;;;;32.48;7.65;;;;;;;-4.43;67.01;99261.13;1781485;79;21034;-75
2021/03/12 05:59:03;;;;;;;15.72;7.55;;;;;;;-4.43;66.50;99251.76;1781699;80;20998;-74
2021/03/12 06:01:34;;;;;;;19.98;8.00;;;;;;;-4.41;66.54;99271.11;1763716;80;21010;-71
2021/03/12 06:04:02;;;;;;;20.75;8.53;;;;;;;-4.37;66.79;99244.67;1750642;82;21262;-72
2021/03/12 06:06:30;;;;;;;15.38;8.03;;;;;;;-4.34;66.48;99240.20;1750468;81;21215;-73
2021/03/12 06:08:59;;;;;;;21.12;8.08;;;;;;;-4.31;66.26;99231.71;1769924;80;21520;-70
2021/03/12 06:11:27;;;;;;;21.62;8.70;;;;;;;-4.27;66.29;99236.92;1751707;80;21109;-71
2021/03/12 06:13:55;;;;;;;18.45;8.03;;;;;;;-4.24;66.45;99245.02;1753210;80;20962;-75
2021/03/12 06:16:34;;;;;;;34.53;9.53;;;;;;;-4.19;66.25;99224.53;1873065;76;22605;-73
2021/03/12 06:19:19;;;;;;;26.27;8.53;;;;;;;-4.23;66.14;99209.14;1831493;76;21257;-73
2021/03/12 06:21:48;;;;;;;28.32;9.45;;;;;;;-4.21;66.24;99200.34;1806431;78;21641;-75
2021/03/12 06:24:31;;;;;;;25.60;8.45;;;;;;;-4.17;66.32;99199.66;1828967;78;20964;-74
2021/03/12 06:27:28;;;;;;;27.48;8.55;;;;;;;-4.17;66.10;99210.91;1841178;77;20960;-76
2021/03/12 06:30:08;;;;;;;25.43;7.95;;;;;;;-4.19;65.82;99191.03;1889618;75;22646;-73
2021/03/12 06:32:51;;;;;;;38.75;8.68;;;;;;;-4.23;66.12;99207.27;1830924;77;20960;-73
2021/03/12 06:35:26;;;;;;;25.82;9.08;;;;;;;-4.21;66.20;99194.46;1857098;77;21204;-71
2021/03/12 06:37:55;;;;;;;20.08;8.58;;;;;;;-4.17;66.26;99199.66;1826359;77;21011;-73
2021/03/12 06:40:28;;;;;;;17.20;7.72;;;;;;;-4.11;65.83;99193.38;1799686;77;20935;-73
2021/03/12 06:43:17;;;;;;;25.12;8.35;;;;;;;-4.08;65.63;99195.61;1873520;76;20985;-72
2021/03/12 06:45:54;;;;;;;24.45;8.53;;;;;;;-4.06;65.33;99200.74;1806766;79;20923;-72
2021/03/12 06:48:30;;;;;;;25.65;6.60;;;;;;;-4.05;65.40;99205.88;1822438;78;21364;-74
2021/03/12 06:51:10;;;;;;;21.68;7.85;;;;;;;-4.05;65.49;99217.94;1821813;78;20966;-82
2021/03/12 06:53:42;;;;;;;32.08;8.35;;;;;;;-4.05;65.60;99213.92;1819452;78;21176;-77
2021/03/12 06:56:13;;;;;;;20.23;9.25;;;;;;;-4.05;65.43;99207.22;1776961;79;21550;-74
2021/03/12 06:58:58;;;;;;;16.20;6.83;;;;;;;-4.06;65.40;99206.92;1788880;78;21060;-74
2021/03/12 07:01:28;;;;;;;28.07;9.78;;;;;;;-4.05;65.76;99198.36;1789607;80;22039;-74
2021/03/12 07:04:14;;;;;;;32.60;9.08;;;;;;;-4.00;65.81;99192.56;1887989;76;22804;-74
2021/03/12 07:06:49;;;;;;;21.55;8.20;;;;;;;-3.96;66.26;99190.24;1736602;80;21568;-74
2021/03/12 07:09:19;;;;;;;23.57;8.58;;;;;;;-3.90;65.65;99186.64;1823560;77;21370;-74
2021/03/12 07:11:59;;;;;;;20.82;8.83;;;;;;;-3.85;65.56;99162.63;1873367;76;22664;-74
2021/03/12 07:14:45;;;;;;;27.55;8.13;;;;;;;-3.82;66.03;99164.03;1841380;78;20968;-74
2021/03/12 07:17:23;;;;;;;24.92;8.30;;;;;;;-3.71;65.58;99170.75;1847768;77;21259;-75
2021/03/12 07:19:52;;;;;;;19.02;8.85;;;;;;;-3.64;65.38;99170.64;1863241;77;21111;-75
2021/03/12 07:22:20;;;;;;;20.00;7.42;;;;;;;-3.60;65.29;99174.49;1864005;77;20963;-74
2021/03/12 07:24:49;;;;;;;15.75;7.85;;;;;;;-3.62;65.10;99165.86;1863808;77;21017;-74
2021/03/12 07:27:18;;;;;;;20.23;8.70;;;;;;;-3.64;65.23;99166.62;1864077;77;21143;-75
2021/03/12 07:29:50;;;;;;;24.60;8.15;;;;;;;-3.61;65.53;99159.44;1854168;77;21199;-74
2021/03/12 07:32:20;;;;;;;23.95;7.67;;;;;;;-3.59;65.49;99159.21;1863060;77;21119;-75
2021/03/12 07:34:49;;;;;;;22.15;8.50;;;;;;;-3.60;65.45;99136.93;1806836;77;21016;-74
2021/03/12 07:37:20;;;;;;;24.60;7.83;;;;;;;-3.60;65.65;99133.43;1862412;77;20996;-74
2021/03/12 07:39:47;;;;;;;22.98;8.33;;;;;;;-3.60;65.55;99144.98;1863933;76;20913;-74
2021/03/12 07:42:18;;;;;;;26.87;7.55;;;;;;;-3.57;65.51;99132.44;1851292;77;21753;-75
2021/03/12 07:45:06;;;;;;;27.32;8.65;;;;;;;-3.59;65.74;99122.98;1830224;78;21063;-74
2021/03/12 07:47:54;;;;;;;21.42;7.83;;;;;;;-3.56;65.92;99122.00;1813032;78;21018;-75
2021/03/12 07:50:38;;;;;;;23.90;7.65;;;;;;;-3.44;65.76;99120.62;1889818;75;22719;-75
2021/03/12 07:53:07;;;;;;;16.02;6.92;;;;;;;-3.45;65.74;99134.56;1860258;77;21038;-75
2021/03/12 07:55:45;;;;;;;19.95;7.90;;;;;;;-3.39;65.76;99128.78;1858899;77;22151;-75
2021/03/12 07:58:50;;;;;;;21.57;8.15;;;;;;;-3.33;65.57;99126.50;1767615;77;20991;-74
2021/03/12 08:01:20;;;;;;;18.90;8.18;;;;;;;-3.30;65.73;99132.73;1860629;77;21462;-74
2021/03/12 08:03:52;;;;;;;17.77;8.35;;;;;;;-3.25;65.84;99117.27;1827699;77;21054;-74
2021/03/12 08:06:37;;;;;;;17.80;7.50;;;;;;;-3.18;65.63;99111.23;1860204;77;20948;-73
2021/03/12 08:09:31;;;;;;;22.00;8.40;;;;;;;-3.12;65.18;99090.16;1857819;77;22205;-73
2021/03/12 08:12:37;;;;;;;18.60;6.58;;;;;;;-3.12;65.27;99103.58;1844908;77;21021;-73
2021/03/12 08:15:14;;;;;;;26.23;8.10;;;;;;;-3.11;64.96;99095.81;1852652;77;21150;-74
2021/03/12 08:17:46;;;;;;;27.70;10.25;;;;;;;-3.13;65.03;99114.84;1822694;77;21869;-74
2021/03/12 08:20:43;;;;;;;42.62;12.58;;;;;;;-3.13;65.04;99110.00;1768470;80;21137;-74
2021/03/12 08:23:15;;;;;;;22.48;8.30;;;;;;;-3.07;65.29;99110.40;1801251;78;22084;-73
2021/03/12 08:25:47;;;;;;;28.12;9.58;;;;;;;-3.04;65.15;99096.50;1812849;78;21002;-76
2021/03/12 08:28:29;;;;;;;25.62;9.68;;;;;;;-2.97;65.30;99099.86;1816222;78;21616;-76
2021/03/12 08:31:00;;;;;;;25.37;10.13;;;;;;;-2.88;64.92;99112.36;1757868;80;21215;-74
2021/03/12 08:33:36;;;;;;;14.20;8.00;;;;;;;-2.84;64.96;99097.39;1811246;78;21137;-72
2021/03/12 08:36:25;;;;;;;23.20;8.85;;;;;;;-2.76;64.58;99100.52;1855087;76;22457;-75
2021/03/12 08:39:28;;;;;;;30.05;11.95;;;;;;;-2.82;64.76;99104.16;1832066;77;21016;-73
2021/03/12 08:42:59;;;;;;;29.32;10.35;;;;;;;-2.82;65.02;99052.30;1859287;76;22747;-75
2021/03/12 08:45:53;;;;;;;25.95;10.80;;;;;;;-2.80;65.36;99055.56;1775729;80;21557;-73
2021/03/12 08:48:34;;;;;;;25.15;10.53;;;;;;;-2.68;65.31;99058.48;1889790;76;22689;-72
2021/03/12 08:51:06;;;;;;;26.17;10.65;;;;;;;-2.67;65.21;99050.70;1860752;77;21256;-76
2021/03/12 08:53:42;;;;;;;24.82;10.20;;;;;;;-2.68;65.19;99063.86;1860280;77;21190;-75
2021/03/12 08:56:10;;;;;;;22.45;9.10;;;;;;;-2.63;65.39;99056.41;1859894;77;20936;-74
2021/03/12 08:58:40;;;;;;;25.68;8.33;;;;;;;-2.63;64.86;99051.57;1859590;77;20908;-73
2021/03/12 09:01:20;;;;;;;25.48;9.28;;;;;;;-2.64;65.35;99053.44;1889725;76;21798;-72
2021/03/12 09:03:52;;;;;;;25.17;8.30;;;;;;;-2.68;65.90;99053.11;1859419;77;21149;-73
2021/03/12 09:06:39;;;;;;;26.23;10.25;;;;;;;-2.64;66.01;99017.69;1872460;76;22706;-73
2021/03/12 09:09:27;;;;;;;25.48;8.13;;;;;;;-2.68;66.60;99028.11;1841273;78;21003;-74
2021/03/12 09:12:08;;;;;;;22.20;8.73;;;;;;;-2.70;66.50;99053.06;1839826;78;22244;-74
2021/03/12 09:14:40;;;;;;;21.60;10.05;;;;;;;-2.76;66.91;99054.84;1839617;78;21539;-72
2021/03/12 09:17:08;;;;;;;28.90;7.80;;;;;;;-2.73;67.42;99048.98;1790580;80;21002;-73
2021/03/12 09:19:36;;;;;;;19.73;8.65;;;;;;;-2.70;67.64;99019.48;1751151;79;21092;-77
2021/03/12 09:22:06;;;;;;;23.70;9.33;;;;;;;-2.68;67.72;99046.39;1781145;79;20993;-73
2021/03/12 09:24:37;;;;;;;21.75;8.85;;;;;;;-2.70;67.64;99045.00;1781284;80;21202;-79
2021/03/12 09:27:07;;;;;;;15.90;7.30;;;;;;;-2.71;68.00;99056.28;1751572;80;21091;-76
2021/03/12 09:29:45;;;;;;;19.07;8.53;;;;;;;-2.69;68.29;99031.86;1873144;76;22670;-77
2021/03/12 09:32:14;;;;;;;24.02;9.15;;;;;;;-2.75;68.23;99028.79;1841371;77;21475;-80
2021/03/12 09:34:46;;;;;;;25.25;7.97;;;;;;;-2.76;68.87;99034.69;1840265;78;21187;-80
2021/03/12 09:37:18;;;;;;;18.65;9.28;;;;;;;-2.77;69.15;99023.66;1841001;78;21632;-76
2021/03/12 09:39:59;;;;;;;19.45;8.55;;;;;;;-2.77;70.04;99031.72;1839755;77;21135;-78
2021/03/12 09:42:30;;;;;;;20.65;8.28;;;;;;;-2.79;71.05;99023.09;1814431;78;21170;-75
2021/03/12 09:45:01;;;;;;;22.45;8.18;;;;;;;-2.77;71.90;99013.44;1796445;78;21010;-73
2021/03/12 09:47:31;;;;;;;29.10;10.55;;;;;;;-2.77;72.54;99003.51;1807958;79;22446;-79
2021/03/12 09:50:07;;;;;;;26.15;12.18;;;;;;;-2.77;72.96;99015.59;1807986;79;21043;-72
2021/03/12 09:52:37;;;;;;;25.75;9.80;;;;;;;-2.81;74.11;99005.58;1806461;79;21030;-74
2021/03/12 09:55:08;;;;;;;30.35;12.00;;;;;;;-2.82;75.10;99003.42;1805557;79;21087;-73
2021/03/12 09:57:36;;;;;;;29.23;11.93;;;;;;;-2.81;75.81;98990.80;1806481;79;21567;-74
2021/03/12 10:00:07;;;;;;;25.15;9.20;;;;;;;-2.84;76.45;98998.81;1806118;79;21199;-75
2021/03/12 10:02:52;;;;;;;27.50;10.40;;;;;;;-2.89;76.48;99002.78;1806471;79;20940;-73
2021/03/12 10:05:38;;;;;;;31.75;10.10;;;;;;;-2.93;77.16;98977.47;1805050;79;21043;-73
2021/03/12 10:08:12;;;;;;;20.45;7.92;;;;;;;-2.95;77.55;98998.91;1806530;78;21504;-76
2021/03/12 10:11:04;;;;;;;24.27;10.35;;;;;;;-2.94;78.53;98981.73;1855642;76;22703;-76
2021/03/12 10:13:35;;;;;;;21.15;9.15;;;;;;;-2.99;79.45;98990.52;1856657;77;21516;-75
2021/03/12 10:16:13;;;;;;;33.80;10.63;;;;;;;-2.98;80.31;98993.48;1859091;77;21412;-75
2021/03/12 10:18:46;;;;;;;35.83;10.05;;;;;;;-2.98;80.72;98994.02;1858908;77;21045;-74
2021/03/12 10:21:15;;;;;;;17.10;8.40;;;;;;;-2.96;80.95;98994.59;1859291;77;21021;-75
2021/03/12 10:23:43;;;;;;;25.90;8.85;;;;;;;-2.97;81.48;98991.62;1860606;77;20937;-75
2021/03/12 10:26:11;;;;;;;22.35;9.38;;;;;;;-2.94;81.52;98991.14;1860576;77;21108;-75
2021/03/12 10:28:38;;;;;;;21.33;9.55;;;;;;;-2.90;81.95;98984.23;1827726;77;21643;-74
2021/03/12 10:31:07;;;;;;;24.47;9.53;;;;;;;-2.86;81.99;98982.66;1827896;77;21612;-75
2021/03/12 10:33:36;;;;;;;23.52;10.45;;;;;;;-2.85;82.29;98988.31;1860544;77;21084;-75
2021/03/12 10:36:11;;;;;;;21.80;9.65;;;;;;;-2.85;83.06;98989.13;1860405;77;21210;-75
2021/03/12 10:38:39;;;;;;;28.65;10.05;;;;;;;-2.86;83.62;98980.78;1855191;77;21036;-74
2021/03/12 10:41:19;;;;;;;23.75;9.05;;;;;;;-2.85;84.39;98985.63;1828421;77;21194;-74
2021/03/12 10:44:01;;;;;;;29.35;10.63;;;;;;;-2.85;84.65;98990.47;1826553;77;21032;-74
2021/03/12 10:46:30;;;;;;;30.27;11.33;;;;;;;-2.83;85.01;98988.36;1826715;78;20978;-74
2021/03/12 10:48:58;;;;;;;24.25;11.43;;;;;;;-2.82;87.09;98989.98;1826660;78;21013;-75
2021/03/12 10:51:39;;;;;;;31.82;12.93;;;;;;;-2.84;87.24;98984.05;1826400;78;21156;-75
2021/03/12 10:54:14;;;;;;;33.98;13.45;;;;;;;-2.81;87.34;98975.50;1790515;80;21770;-79
2021/03/12 10:56:47;;;;;;;25.52;10.13;;;;;;;-2.77;87.42;98979.86;1790494;80;21136;-75
2021/03/12 10:59:16;;;;;;;22.75;10.72;;;;;;;-2.69;87.07;98979.46;1790367;80;21492;-76
2021/03/12 11:01:46;;;;;;;24.52;11.70;;;;;;;-2.60;86.39;98983.91;1790875;79;21010;-74
2021/03/12 11:04:14;;;;;;;23.05;9.93;;;;;;;-2.58;86.14;98977.75;1790515;79;21068;-73
2021/03/12 11:06:42;;;;;;;27.42;12.40;;;;;;;-2.57;86.06;98972.67;1790363;80;22686;-76
2021/03/12 11:09:13;;;;;;;34.85;13.48;;;;;;;-2.54;85.90;98976.21;1779503;80;21587;-76
2021/03/12 11:11:43;;;;;;;27.87;13.05;;;;;;;-2.51;85.87;98985.13;1777965;80;21548;-75
2021/03/12 11:14:11;;;;;;;31.07;12.98;;;;;;;-2.55;85.65;98988.02;1777792;79;21024;-75
2021/03/12 11:16:39;;;;;;;29.23;12.20;;;;;;;-2.55;86.16;98983.46;1778021;80;20993;-75
2021/03/12 11:19:08;;;;;;;25.40;11.88;;;;;;;-2.58;85.88;98983.13;1778274;78;21197;-75
2021/03/12 11:21:36;;;;;;;23.92;11.88;;;;;;;-2.59;86.11;98973.44;1777531;80;21681;-75
2021/03/12 11:24:08;;;;;;;21.30;11.50;;;;;;;-2.62;86.25;98964.00;1777399;80;21075;-74
2021/03/12 11:26:42;;;;;;;24.03;11.70;;;;;;;-2.59;86.79;98957.31;1752209;79;21139;-76
2021/03/12 11:29:10;;;;;;;23.95;10.32;;;;;;;-2.50;87.13;98947.79;1777510;80;21068;-77
2021/03/12 11:31:39;;;;;;;27.45;12.50;;;;;;;-2.41;86.60;98934.22;1777337;80;21250;-75
2021/03/12 11:34:07;;;;;;;21.75;11.35;;;;;;;-2.37;86.35;98929.45;1777317;80;21020;-75
2021/03/12 11:36:38;;;;;;;29.55;12.37;;;;;;;-2.34;86.06;98925.45;1792651;80;21029;-74
2021/03/12 11:39:08;;;;;;;25.52;11.78;;;;;;;-2.36;86.21;98917.64;1792301;79;21039;-75
2021/03/12 11:41:37;;;;;;;33.50;11.68;;;;;;;-2.35;86.38;98920.61;1768797;80;21473;-74
2021/03/12 11:44:06;;;;;;;32.45;13.03;;;;;;;-2.33;86.54;98920.36;1763945;81;22763;-74
2021/03/12 11:46:34;;;;;;;22.27;10.90;;;;;;;-2.31;86.84;98915.52;1763813;81;21158;-74
2021/03/12 11:49:06;;;;;;;28.87;11.90;;;;;;;-2.23;86.98;98917.78;1775340;80;21641;-76